createdAt,value
2019-06-08T00:00:08.563Z,13.13
2019-06-08T00:02:36.940Z,13.09
2019-06-08T00:05:06.876Z,13.02
2019-06-08T00:07:35.364Z,12.95
2019-06-08T00:10:06.280Z,12.88
2019-06-08T00:12:35.045Z,12.65
2019-06-08T00:15:06.144Z,12.76
2019-06-08T00:17:38.756Z,12.59
2019-06-08T00:20:06.788Z,12.67
2019-06-08T00:22:35.163Z,12.67
2019-06-08T00:25:05.070Z,12.65
2019-06-08T00:27:33.605Z,12.57
2019-06-08T00:30:02.415Z,12.59
2019-06-08T00:32:31.060Z,12.54
2019-06-08T00:34:59.453Z,12.49
2019-06-08T00:37:27.831Z,12.47
2019-06-08T00:39:56.489Z,12.45
2019-06-08T00:42:26.375Z,12.45
2019-06-08T00:44:54.776Z,12.41
2019-06-08T00:47:24.607Z,12.38
2019-06-08T00:49:53.242Z,12.33
2019-06-08T00:52:21.661Z,12.32
2019-06-08T00:54:50.036Z,12.36
2019-06-08T00:57:19.706Z,12.35
2019-06-08T00:59:48.115Z,12.32
2019-06-08T01:02:18.246Z,12.33
2019-06-08T01:04:46.787Z,12.34
2019-06-08T01:07:15.208Z,12.36
2019-06-08T01:09:45.113Z,12.38
2019-06-08T01:12:15.070Z,12.37
2019-06-08T01:14:43.451Z,12.35
2019-06-08T01:17:11.859Z,12.35
2019-06-08T01:19:40.302Z,12.35
2019-06-08T01:22:10.349Z,12.40
2019-06-08T01:24:40.392Z,12.46
2019-06-08T01:27:08.876Z,12.53
2019-06-08T01:29:37.375Z,12.66
2019-06-08T01:32:05.844Z,12.78
2019-06-08T01:34:34.452Z,12.93
2019-06-08T01:37:03.129Z,13.04
2019-06-08T01:39:32.415Z,13.14
2019-06-08T01:42:01.606Z,13.26
2019-06-08T01:44:30.141Z,13.41
2019-06-08T01:47:00.164Z,13.45
2019-06-08T01:49:28.528Z,13.54
2019-06-08T01:51:58.452Z,13.61
2019-06-08T01:54:26.985Z,13.70
2019-06-08T01:56:55.302Z,13.78
2019-06-08T01:59:23.702Z,13.84
2019-06-08T02:01:52.129Z,13.87
2019-06-08T02:04:22.085Z,13.96
2019-06-08T02:06:50.884Z,13.97
2019-06-08T02:09:19.295Z,13.96
2019-06-08T02:11:47.894Z,13.96
2019-06-08T02:14:16.382Z,13.98
2019-06-08T02:16:44.807Z,14.04
2019-06-08T02:19:14.720Z,14.06
2019-06-08T02:21:44.615Z,14.09
2019-06-08T02:24:13.075Z,14.10
2019-06-08T02:26:41.759Z,14.11
2019-06-08T02:29:10.193Z,13.96
2019-06-08T02:31:41.940Z,14.19
2019-06-08T02:34:10.233Z,14.18
2019-06-08T02:36:38.630Z,14.18
2019-06-08T02:39:08.384Z,14.15
2019-06-08T02:41:37.518Z,14.11
2019-06-08T02:44:08.491Z,14.06
2019-06-08T02:46:40.470Z,14.01
2019-06-08T02:49:09.431Z,14.00
2019-06-08T02:51:38.386Z,14.00
2019-06-08T02:54:06.914Z,13.97
2019-06-08T02:56:37.336Z,13.96
2019-06-08T02:59:06.347Z,13.95
2019-06-08T03:01:35.962Z,13.89
2019-06-08T03:04:06.655Z,13.82
2019-06-08T03:06:39.425Z,13.72
2019-06-08T03:09:08.273Z,13.62
2019-06-08T03:11:37.156Z,13.58
2019-06-08T03:14:07.240Z,13.51
2019-06-08T03:16:37.982Z,13.46
2019-06-08T03:19:20.583Z,13.49
2019-06-08T03:21:36.867Z,13.53
2019-06-08T03:24:06.138Z,13.54
2019-06-08T03:26:36.489Z,13.56
2019-06-08T03:29:04.802Z,13.55
2019-06-08T03:31:36.111Z,13.52
2019-06-08T03:34:04.242Z,13.50
2019-06-08T03:36:35.872Z,13.38
2019-06-08T03:39:02.918Z,13.52
2019-06-08T03:41:31.282Z,13.53
2019-06-08T03:43:59.690Z,13.54
2019-06-08T03:46:28.294Z,13.53
2019-06-08T03:48:56.651Z,13.51
2019-06-08T03:51:25.094Z,13.51
2019-06-08T03:53:53.541Z,13.54
2019-06-08T03:56:21.974Z,13.59
2019-06-08T03:58:50.348Z,13.62
2019-06-08T04:01:18.860Z,13.60
2019-06-08T04:03:47.242Z,13.54
2019-06-08T04:06:17.136Z,13.49
2019-06-08T04:08:47.510Z,13.49
2019-06-08T04:11:15.720Z,13.51
2019-06-08T04:13:45.095Z,13.53
2019-06-08T04:16:14.259Z,13.59
2019-06-08T04:18:44.675Z,13.68
2019-06-08T04:21:12.819Z,13.74
2019-06-08T04:23:42.749Z,13.79
2019-06-08T04:26:11.584Z,13.84
2019-06-08T04:28:40.577Z,13.89
2019-06-08T04:31:09.296Z,13.90
2019-06-08T04:33:37.946Z,13.89
2019-06-08T04:36:06.322Z,13.89
2019-06-08T04:38:36.225Z,13.89
2019-06-08T04:41:04.776Z,13.96
2019-06-08T04:43:33.180Z,14.03
2019-06-08T04:46:01.594Z,14.10
2019-06-08T04:48:30.035Z,14.15
2019-06-08T04:50:58.450Z,14.17
2019-06-08T04:53:26.939Z,14.17
2019-06-08T04:55:55.417Z,14.17
2019-06-08T04:58:23.855Z,14.21
2019-06-08T05:00:52.253Z,14.22
2019-06-08T05:03:20.655Z,14.26
2019-06-08T05:05:50.141Z,14.25
2019-06-08T05:08:18.756Z,14.21
2019-06-08T05:10:47.548Z,14.18
2019-06-08T05:13:16.116Z,14.12
2019-06-08T05:15:45.436Z,14.10
2019-06-08T05:18:13.918Z,14.11
2019-06-08T05:20:45.388Z,14.16
2019-06-08T05:23:12.559Z,14.24
2019-06-08T05:25:41.254Z,14.34
2019-06-08T05:28:09.835Z,14.40
2019-06-08T05:30:39.317Z,14.54
2019-06-08T05:33:08.132Z,14.54
2019-06-08T05:35:39.283Z,14.62
2019-06-08T05:38:07.917Z,14.76
2019-06-08T05:40:36.443Z,15.12
2019-06-08T05:43:06.817Z,15.12
2019-06-08T05:45:35.210Z,15.34
2019-06-08T05:48:05.732Z,15.49
2019-06-08T05:50:34.992Z,15.29
2019-06-08T05:53:04.439Z,15.52
2019-06-08T05:55:33.695Z,15.44
2019-06-08T05:58:02.236Z,15.45
2019-06-08T06:00:30.661Z,15.33
2019-06-08T06:02:59.106Z,15.52
2019-06-08T06:05:27.666Z,15.52
2019-06-08T06:07:56.052Z,15.54
2019-06-08T06:10:24.492Z,15.58
2019-06-08T06:12:53.097Z,15.61
2019-06-08T06:15:22.071Z,15.66
2019-06-08T06:17:51.579Z,15.73
2019-06-08T06:20:22.617Z,15.80
2019-06-08T06:22:52.589Z,15.84
2019-06-08T06:25:21.278Z,15.94
2019-06-08T06:27:49.714Z,16.16
2019-06-08T06:30:19.059Z,16.37
2019-06-08T06:32:47.833Z,16.48
2019-06-08T06:35:16.624Z,16.64
2019-06-08T06:37:45.910Z,16.75
2019-06-08T06:40:14.542Z,16.83
2019-06-08T06:42:43.838Z,16.81
2019-06-08T06:45:12.744Z,16.69
2019-06-08T06:47:42.213Z,16.72
2019-06-08T06:50:12.241Z,16.97
2019-06-08T06:52:42.748Z,17.27
2019-06-08T06:55:12.469Z,17.46
2019-06-08T06:57:41.229Z,17.81
2019-06-08T07:00:11.752Z,17.76
2019-06-08T07:02:45.597Z,17.60
2019-06-08T07:05:15.706Z,17.74
2019-06-08T07:07:44.213Z,17.95
2019-06-08T07:10:15.341Z,17.88
2019-06-08T07:12:46.505Z,18.05
2019-06-08T07:15:18.089Z,18.14
2019-06-08T07:17:50.058Z,17.89
2019-06-08T07:20:21.144Z,17.83
2019-06-08T07:22:50.203Z,17.79
2019-06-08T07:25:18.933Z,17.75
2019-06-08T07:27:50.517Z,17.55
2019-06-08T07:30:23.275Z,17.76
2019-06-08T07:33:11.763Z,17.81
2019-06-08T07:35:40.403Z,17.50
2019-06-08T07:38:09.011Z,17.51
2019-06-08T07:40:37.919Z,17.51
2019-06-08T07:43:06.401Z,17.77
2019-06-08T07:45:34.976Z,18.02
2019-06-08T07:48:03.484Z,17.86
2019-06-08T07:50:32.120Z,17.66
2019-06-08T07:53:00.751Z,17.62
2019-06-08T07:55:30.674Z,17.57
2019-06-08T07:58:00.343Z,17.73
2019-06-08T08:00:36.302Z,17.83
2019-06-08T08:03:04.939Z,18.06
2019-06-08T08:05:35.833Z,18.29
2019-06-08T08:08:04.545Z,18.69
2019-06-08T08:10:36.238Z,18.83
2019-06-08T08:13:09.819Z,19.01
2019-06-08T08:15:42.936Z,18.73
2019-06-08T08:18:13.031Z,18.65
2019-06-08T08:20:44.501Z,18.50
2019-06-08T08:23:17.319Z,18.56
2019-06-08T08:25:47.522Z,18.56
2019-06-08T08:28:17.714Z,18.50
2019-06-08T08:30:49.346Z,18.47
2019-06-08T08:33:18.438Z,18.83
2019-06-08T08:35:50.573Z,18.83
2019-06-08T08:38:19.261Z,19.24
2019-06-08T08:40:49.753Z,19.03
2019-06-08T08:43:17.977Z,19.13
2019-06-08T08:45:47.690Z,19.48
2019-06-08T08:48:25.362Z,20.08
2019-06-08T08:50:51.216Z,20.40
2019-06-08T08:53:21.025Z,20.89
2019-06-08T08:55:52.346Z,21.21
2019-06-08T08:58:21.142Z,21.26
2019-06-08T09:00:50.934Z,21.49
2019-06-08T09:03:28.769Z,21.57
2019-06-08T09:05:51.977Z,21.45
2019-06-08T09:08:23.269Z,21.58
2019-06-08T09:10:52.288Z,21.85
2019-06-08T09:13:22.779Z,22.12
2019-06-08T09:15:52.334Z,22.59
2019-06-08T09:18:21.659Z,22.47
2019-06-08T09:20:52.366Z,21.91
2019-06-08T09:23:21.941Z,21.82
2019-06-08T09:25:52.696Z,21.53
2019-06-08T09:28:21.638Z,21.46
2019-06-08T09:30:52.047Z,21.23
2019-06-08T09:33:20.645Z,21.00
2019-06-08T09:35:53.055Z,21.12
2019-06-08T09:38:20.838Z,20.72
2019-06-08T09:40:49.303Z,20.61
2019-06-08T09:43:18.987Z,20.82
2019-06-08T09:45:48.424Z,20.77
2019-06-08T09:48:18.175Z,20.60
2019-06-08T09:50:48.663Z,20.47
2019-06-08T09:53:27.957Z,20.43
2019-06-08T09:55:48.177Z,21.08
2019-06-08T09:58:18.180Z,21.90
2019-06-08T10:00:48.923Z,22.18
2019-06-08T10:03:18.696Z,22.37
2019-06-08T10:05:48.436Z,22.46
2019-06-08T10:08:20.245Z,22.51
2019-06-08T10:10:48.424Z,22.86
2019-06-08T10:13:18.892Z,23.12
2019-06-08T10:15:51.202Z,23.47
2019-06-08T10:18:17.737Z,23.41
2019-06-08T10:20:48.189Z,23.74
2019-06-08T10:23:30.244Z,23.88
2019-06-08T10:25:48.175Z,23.71
2019-06-08T10:28:21.473Z,23.22
2019-06-08T10:30:48.687Z,22.90
2019-06-08T10:33:18.444Z,22.93
2019-06-08T10:35:48.040Z,22.64
2019-06-08T10:38:18.176Z,22.48
2019-06-08T10:41:13.113Z,23.03
2019-06-08T10:43:32.891Z,23.03
2019-06-08T10:46:08.455Z,23.35
2019-06-08T10:48:31.922Z,23.58
2019-06-08T10:51:04.208Z,23.93
2019-06-08T10:53:46.446Z,24.13
2019-06-08T10:56:05.572Z,23.75
2019-06-08T10:58:34.767Z,23.15
2019-06-08T11:01:10.717Z,23.10
2019-06-08T11:03:38.663Z,23.47
2019-06-08T11:06:11.349Z,23.63
2019-06-08T11:08:38.877Z,23.60
2019-06-08T11:11:09.774Z,23.99
2019-06-08T11:13:37.200Z,24.39
2019-06-08T11:16:06.676Z,24.39
2019-06-08T11:18:36.046Z,24.59
2019-06-08T11:21:07.245Z,24.83
2019-06-08T11:23:34.856Z,24.54
2019-06-08T11:26:12.058Z,24.51
2019-06-08T11:28:34.513Z,24.17
2019-06-08T11:31:03.954Z,23.79
2019-06-08T11:33:32.540Z,23.46
2019-06-08T11:36:02.977Z,22.83
2019-06-08T11:38:31.076Z,22.49
2019-06-08T11:41:02.053Z,22.15
2019-06-08T11:43:29.840Z,21.99
2019-06-08T11:45:58.466Z,22.06
2019-06-08T11:48:28.503Z,22.49
2019-06-08T11:51:00.517Z,22.47
2019-06-08T11:53:29.247Z,22.26
2019-06-08T11:55:58.635Z,22.17
2019-06-08T11:58:30.788Z,22.70
2019-06-08T12:01:05.171Z,22.95
2019-06-08T12:03:38.848Z,22.94
2019-06-08T12:06:10.493Z,22.66
2019-06-08T12:08:38.148Z,22.30
2019-06-08T12:11:11.578Z,22.15
2019-06-08T12:13:38.331Z,22.77
2019-06-08T12:16:10.374Z,22.79
2019-06-08T12:18:40.098Z,22.74
2019-06-08T12:21:11.292Z,22.94
2019-06-08T12:23:39.305Z,22.95
2019-06-08T12:26:08.192Z,22.64
2019-06-08T12:28:38.324Z,22.50
2019-06-08T12:31:12.011Z,22.75
2019-06-08T12:33:39.127Z,22.66
2019-06-08T12:36:09.127Z,22.50
2019-06-08T12:38:38.037Z,22.50
2019-06-08T12:41:09.139Z,22.34
2019-06-08T12:43:38.553Z,22.77
2019-06-08T12:46:10.640Z,22.85
2019-06-08T12:48:38.510Z,22.72
2019-06-08T12:51:10.001Z,22.48
2019-06-08T12:53:38.189Z,22.72
2019-06-08T12:56:09.080Z,23.37
2019-06-08T12:58:38.654Z,23.67
2019-06-08T13:01:08.191Z,24.29
2019-06-08T13:03:38.786Z,24.73
2019-06-08T13:06:08.977Z,25.02
2019-06-08T13:08:39.057Z,25.22
2019-06-08T13:11:09.370Z,25.10
2019-06-08T13:13:37.974Z,25.09
2019-06-08T13:16:06.465Z,25.19
2019-06-08T13:18:34.962Z,25.19
2019-06-08T13:21:18.738Z,25.15
2019-06-08T13:23:34.426Z,24.94
2019-06-08T13:26:02.897Z,24.76
2019-06-08T13:28:31.376Z,24.15
2019-06-08T13:30:59.862Z,23.93
2019-06-08T13:33:28.355Z,24.44
2019-06-08T13:35:58.027Z,24.79
2019-06-08T13:38:27.769Z,24.67
2019-06-08T13:40:58.910Z,24.68
2019-06-08T13:43:27.077Z,25.06
2019-06-08T13:45:58.090Z,24.79
2019-06-08T13:48:25.989Z,24.68
2019-06-08T13:50:54.468Z,24.76
2019-06-08T13:53:28.379Z,24.78
2019-06-08T13:55:56.764Z,24.78
2019-06-08T13:58:32.154Z,24.92
2019-06-08T14:00:56.761Z,25.00
2019-06-08T14:03:24.831Z,24.98
2019-06-08T14:05:53.510Z,25.21
2019-06-08T14:08:25.913Z,25.19
2019-06-08T14:11:00.482Z,24.89
2019-06-08T14:13:29.004Z,24.42
2019-06-08T14:15:58.439Z,24.34
2019-06-08T14:18:29.931Z,24.52
2019-06-08T14:20:58.696Z,24.48
2019-06-08T14:23:27.801Z,24.29
2019-06-08T14:25:59.907Z,24.45
2019-06-08T14:28:28.960Z,24.54
2019-06-08T14:30:59.346Z,24.60
2019-06-08T14:33:32.088Z,24.48
2019-06-08T14:35:59.212Z,24.71
2019-06-08T14:38:37.645Z,24.71
2019-06-08T14:40:59.664Z,24.54
2019-06-08T14:43:31.238Z,24.24
2019-06-08T14:45:58.435Z,24.30
2019-06-08T14:48:32.110Z,24.42
2019-06-08T14:50:58.617Z,24.29
2019-06-08T14:53:29.494Z,24.29
2019-06-08T14:56:05.758Z,24.07
2019-06-08T14:58:33.611Z,24.16
2019-06-08T15:00:58.519Z,24.15
2019-06-08T15:03:27.288Z,24.15
2019-06-08T15:05:57.744Z,24.07
2019-06-08T15:08:28.212Z,23.85
2019-06-08T15:10:58.192Z,23.80
2019-06-08T15:13:28.590Z,23.72
2019-06-08T15:16:00.421Z,23.38
2019-06-08T15:18:28.706Z,23.37
2019-06-08T15:20:58.121Z,23.40
2019-06-08T15:23:29.036Z,23.39
2019-06-08T15:25:58.267Z,23.12
2019-06-08T15:28:29.302Z,22.97
2019-06-08T15:30:59.817Z,22.74
2019-06-08T15:33:32.231Z,22.56
2019-06-08T15:35:57.677Z,22.62
2019-06-08T15:38:28.028Z,22.61
2019-06-08T15:40:57.668Z,22.59
2019-06-08T15:43:29.165Z,22.49
2019-06-08T15:45:58.929Z,22.31
2019-06-08T15:48:28.979Z,22.18
2019-06-08T15:50:58.373Z,22.12
2019-06-08T15:53:29.071Z,22.03
2019-06-08T15:55:58.389Z,21.99
2019-06-08T15:58:29.535Z,21.98
2019-06-08T16:00:57.302Z,21.93
2019-06-08T16:03:25.836Z,21.71
2019-06-08T16:05:56.355Z,21.80
2019-06-08T16:08:25.964Z,21.69
2019-06-08T16:10:54.596Z,21.50
2019-06-08T16:13:26.780Z,21.35
2019-06-08T16:15:55.711Z,21.36
2019-06-08T16:18:25.432Z,21.41
2019-06-08T16:20:55.018Z,21.41
2019-06-08T16:23:25.382Z,21.39
2019-06-08T16:26:00.407Z,21.32
2019-06-08T16:28:29.938Z,21.30
2019-06-08T16:30:58.904Z,21.29
2019-06-08T16:33:27.425Z,21.22
2019-06-08T16:35:55.906Z,21.18
2019-06-08T16:38:26.292Z,21.15
2019-06-08T16:40:56.457Z,21.12
2019-06-08T16:43:24.924Z,21.10
2019-06-08T16:45:53.459Z,21.05
2019-06-08T16:48:21.929Z,21.01
2019-06-08T16:50:50.897Z,20.96
2019-06-08T16:53:19.353Z,20.91
2019-06-08T16:55:47.914Z,20.66
2019-06-08T16:58:16.615Z,20.76
2019-06-08T17:00:45.139Z,20.72
2019-06-08T17:03:17.412Z,20.70
2019-06-08T17:05:45.875Z,20.73
2019-06-08T17:08:14.530Z,20.55
2019-06-08T17:10:42.996Z,20.73
2019-06-08T17:13:12.217Z,20.71
2019-06-08T17:15:41.014Z,20.64
2019-06-08T17:18:09.836Z,20.58
2019-06-08T17:20:38.490Z,20.53
2019-06-08T17:23:08.435Z,20.42
2019-06-08T17:25:37.193Z,20.42
2019-06-08T17:28:06.168Z,20.34
2019-06-08T17:30:35.785Z,20.29
2019-06-08T17:33:06.510Z,20.23
2019-06-08T17:35:35.611Z,20.17
2019-06-08T17:38:04.504Z,20.16
2019-06-08T17:40:34.193Z,20.16
2019-06-08T17:43:04.685Z,20.11
2019-06-08T17:45:34.204Z,20.04
2019-06-08T17:48:02.692Z,19.98
2019-06-08T17:50:32.560Z,19.95
2019-06-08T17:53:01.142Z,19.69
2019-06-08T17:55:29.621Z,19.82
2019-06-08T17:57:58.089Z,19.75
2019-06-08T18:00:26.815Z,19.67
2019-06-08T18:02:57.679Z,19.60
2019-06-08T18:05:28.169Z,19.55
2019-06-08T18:07:57.822Z,19.50
2019-06-08T18:10:27.734Z,19.42
2019-06-08T18:12:58.783Z,19.43
2019-06-08T18:15:28.303Z,19.40
2019-06-08T18:17:57.734Z,19.30
2019-06-08T18:20:28.280Z,19.22
2019-06-08T18:22:58.729Z,19.25
2019-06-08T18:25:27.878Z,19.20
2019-06-08T18:28:06.511Z,19.12
2019-06-08T18:30:27.700Z,18.99
2019-06-08T18:32:58.206Z,19.00
2019-06-08T18:35:27.773Z,19.08
2019-06-08T18:37:57.854Z,19.04
2019-06-08T18:40:27.625Z,18.94
2019-06-08T18:42:57.682Z,18.82
2019-06-08T18:45:27.676Z,18.69
2019-06-08T18:47:57.779Z,18.53
2019-06-08T18:50:28.497Z,18.41
2019-06-08T18:52:57.993Z,18.38
2019-06-08T18:55:27.706Z,18.36
2019-06-08T18:57:58.144Z,18.39
2019-06-08T19:00:43.456Z,18.38
2019-06-08T19:03:11.489Z,18.34
2019-06-08T19:05:45.149Z,18.22
2019-06-08T19:08:12.142Z,18.11
2019-06-08T19:10:42.345Z,18.01
2019-06-08T19:13:11.253Z,17.92
2019-06-08T19:15:42.857Z,17.82
2019-06-08T19:18:09.975Z,17.78
2019-06-08T19:20:43.087Z,17.73
2019-06-08T19:23:09.417Z,17.73
2019-06-08T19:25:42.187Z,17.66
2019-06-08T19:28:08.360Z,17.56
2019-06-08T19:30:40.371Z,17.51
2019-06-08T19:33:08.225Z,17.43
2019-06-08T19:35:37.684Z,17.35
2019-06-08T19:38:07.461Z,17.26
2019-06-08T19:40:39.150Z,17.24
2019-06-08T19:43:07.822Z,17.21
2019-06-08T19:45:39.169Z,17.14
2019-06-08T19:48:09.103Z,17.02
2019-06-08T19:50:38.667Z,16.88
2019-06-08T19:53:07.779Z,16.73
2019-06-08T19:55:39.217Z,16.61
2019-06-08T19:58:08.779Z,16.46
2019-06-08T20:00:39.284Z,16.33
2019-06-08T20:03:07.832Z,16.24
2019-06-08T20:05:38.131Z,16.12
2019-06-08T20:08:08.043Z,16.01
2019-06-08T20:10:36.772Z,15.90
2019-06-08T20:13:07.714Z,15.77
2019-06-08T20:15:43.374Z,15.67
2019-06-08T20:18:08.563Z,15.42
2019-06-08T20:20:38.156Z,15.45
2019-06-08T20:23:09.579Z,15.36
2019-06-08T20:25:38.162Z,15.25
2019-06-08T20:28:07.936Z,15.17
2019-06-08T20:30:36.562Z,15.10
2019-06-08T20:33:05.121Z,15.03
2019-06-08T20:35:33.517Z,14.97
2019-06-08T20:38:01.980Z,14.90
2019-06-08T20:40:30.517Z,14.85
2019-06-08T20:42:59.072Z,14.79
2019-06-08T20:45:28.158Z,14.73
2019-06-08T20:47:58.454Z,14.66
2019-06-08T20:50:27.299Z,14.61
2019-06-08T20:52:57.792Z,14.56
2019-06-08T20:55:28.269Z,14.49
2019-06-08T20:57:57.617Z,14.43
2019-06-08T21:00:27.644Z,14.37
2019-06-08T21:03:02.603Z,14.32
2019-06-08T21:05:27.816Z,14.27
2019-06-08T21:07:58.980Z,14.31
2019-06-08T21:10:28.282Z,14.30
2019-06-08T21:12:59.763Z,14.23
2019-06-08T21:15:30.992Z,14.14
2019-06-08T21:17:59.484Z,14.02
2019-06-08T21:20:28.357Z,13.92
2019-06-08T21:22:59.710Z,13.84
2019-06-08T21:25:28.129Z,13.75
2019-06-08T21:27:58.413Z,13.69
2019-06-08T21:30:28.747Z,13.51
2019-06-08T21:33:00.677Z,13.56
2019-06-08T21:35:27.640Z,13.51
2019-06-08T21:38:01.042Z,13.46
2019-06-08T21:40:28.879Z,13.41
2019-06-08T21:43:01.142Z,13.28
2019-06-08T21:45:29.248Z,13.19
2019-06-08T21:48:00.157Z,13.28
2019-06-08T21:50:27.909Z,13.22
2019-06-08T21:52:59.091Z,13.19
2019-06-08T21:55:27.341Z,13.14
2019-06-08T21:57:59.886Z,13.13
2019-06-08T22:00:39.344Z,13.10
2019-06-08T22:02:58.934Z,13.07
2019-06-08T22:05:27.164Z,13.04
2019-06-08T22:07:58.294Z,13.01
2019-06-08T22:10:25.860Z,12.98
2019-06-08T22:12:55.716Z,12.97
2019-06-08T22:15:27.155Z,12.93
2019-06-08T22:17:59.671Z,12.92
2019-06-08T22:20:29.266Z,12.87
2019-06-08T22:23:01.071Z,12.83
2019-06-08T22:25:29.521Z,12.79
2019-06-08T22:27:59.591Z,12.79
2019-06-08T22:30:36.424Z,12.77
2019-06-08T22:32:59.771Z,12.74
2019-06-08T22:35:29.866Z,12.71
2019-06-08T22:38:00.786Z,12.67
2019-06-08T22:40:28.532Z,12.62
2019-06-08T22:42:59.316Z,12.57
2019-06-08T22:45:28.131Z,12.54
2019-06-08T22:47:58.869Z,12.51
2019-06-08T22:50:27.573Z,12.48
2019-06-08T22:52:59.361Z,12.47
2019-06-08T22:55:27.783Z,12.31
2019-06-08T22:57:59.855Z,12.39
2019-06-08T23:00:28.001Z,12.39
2019-06-08T23:02:59.309Z,12.35
2019-06-08T23:05:27.830Z,12.39
2019-06-08T23:08:04.007Z,12.41
2019-06-08T23:10:31.380Z,12.40
2019-06-08T23:13:02.465Z,12.38
2019-06-08T23:15:29.960Z,12.31
2019-06-08T23:18:02.425Z,12.26
2019-06-08T23:20:28.662Z,12.21
2019-06-08T23:22:58.596Z,12.16
2019-06-08T23:25:27.929Z,12.11
2019-06-08T23:27:56.700Z,12.04
2019-06-08T23:30:27.598Z,11.98
2019-06-08T23:33:00.665Z,11.92
2019-06-08T23:35:44.366Z,11.86
2019-06-08T23:38:00.843Z,11.80
2019-06-08T23:40:31.618Z,11.75
2019-06-08T23:43:04.193Z,11.70
2019-06-08T23:45:34.412Z,11.65
2019-06-08T23:48:02.914Z,11.63
2019-06-08T23:50:31.426Z,11.58
2019-06-08T23:53:00.676Z,11.52
2019-06-08T23:55:29.415Z,11.48
2019-06-08T23:57:58.662Z,11.44
